Time;durP1;ratioP1;P1;durP2;ratioP2;P2;SDS_P1;SDS_P2;PMS_P1;PMS_P2;Temp;Humidity;BMP_temperature;BMP_pressure;BME280_temperature;BME280_humidity;BME280_pressure;Samples;Min_cycle;Max_cycle;Signal;HPM_P1;HPM_P2
2022/10/01 00:01:56;;;;;;;;;3.00;3.00;;;;;14.57;100.00;100503.00;5033890;28;45430;-74
2022/10/01 00:04:22;;;;;;;;;3.00;1.67;;;;;14.66;100.00;100518.31;5029138;28;45406;-74
2022/10/01 00:06:47;;;;;;;;;7.00;5.00;;;;;14.55;100.00;100521.44;5035433;28;45298;-74
2022/10/01 00:09:13;;;;;;;;;5.00;3.67;;;;;14.57;100.00;100503.84;5036300;28;45252;-74
2022/10/01 00:11:38;;;;;;;;;3.67;3.00;;;;;14.55;100.00;100494.97;5038363;28;45435;-74
2022/10/01 00:14:04;;;;;;;;;5.00;5.00;;;;;14.57;100.00;100492.91;5040294;28;45401;-74
2022/10/01 00:16:30;;;;;;;;;2.33;2.33;;;;;14.74;100.00;100499.13;5041728;28;45235;-74
2022/10/01 00:18:56;;;;;;;;;6.33;4.33;;;;;14.75;100.00;100507.16;5041180;28;45307;-75
2022/10/01 00:21:28;;;;;;;;;3.33;3.33;;;;;14.78;100.00;100506.78;5039911;28;45460;-74
2022/10/01 00:23:55;;;;;;;;;3.00;3.00;;;;;14.77;100.00;100505.06;5036493;28;48245;-74
2022/10/01 00:26:26;;;;;;;;;1.00;1.00;;;;;14.73;100.00;100492.81;5042522;28;45474;-74
2022/10/01 00:29:03;;;;;;;;;4.00;4.00;;;;;14.77;100.00;100491.41;5026920;28;45416;-74
2022/10/01 00:31:29;;;;;;;;;3.00;3.00;;;;;14.86;100.00;100496.81;5035576;28;45427;-74
2022/10/01 00:33:57;;;;;;;;;3.00;3.00;;;;;14.93;100.00;100495.06;5035635;28;46222;-74
2022/10/01 00:36:22;;;;;;;;;2.00;2.00;;;;;15.00;100.00;100482.34;5051297;28;45448;-74
2022/10/01 00:38:48;;;;;;;;;3.67;2.00;;;;;14.91;100.00;100487.03;5036568;28;45427;-74
2022/10/01 00:41:16;;;;;;;;;1.67;1.67;;;;;14.82;100.00;100503.69;5032280;28;45663;-74
2022/10/01 00:43:45;;;;;;;;;2.00;2.00;;;;;14.91;100.00;100500.69;5032162;28;46430;-74
2022/10/01 00:46:24;;;;;;;;;3.00;3.00;;;;;14.94;100.00;100488.56;5035080;28;46573;-74
2022/10/01 00:48:49;;;;;;;;;3.00;3.00;;;;;14.97;100.00;100488.19;5040343;28;45253;-74
2022/10/01 00:51:14;;;;;;;;;4.00;3.00;;;;;14.98;100.00;100478.94;5040829;28;45479;-74
2022/10/01 00:53:43;;;;;;;;;2.00;2.00;;;;;14.92;100.00;100468.72;5041009;28;47986;-74
2022/10/01 00:56:08;;;;;;;;;2.00;2.00;;;;;14.82;100.00;100473.63;5034690;28;45250;-74
2022/10/01 00:58:34;;;;;;;;;3.00;3.00;;;;;14.87;100.00;100476.63;5040623;28;45516;-75
2022/10/01 01:00:59;;;;;;;;;4.00;4.00;;;;;14.90;100.00;100465.34;5037414;28;45769;-75
2022/10/01 01:03:25;;;;;;;;;4.00;2.33;;;;;14.89;100.00;100463.66;5052860;28;45346;-75
2022/10/01 01:05:50;;;;;;;;;4.00;4.00;;;;;14.79;100.00;100458.41;5034942;28;45493;-74
2022/10/01 01:08:17;;;;;;;;;2.00;2.00;;;;;14.71;100.00;100463.94;5042152;28;45693;-74
2022/10/01 01:11:00;;;;;;;;;3.00;3.00;;;;;14.75;100.00;100466.16;5029557;28;45596;-74
2022/10/01 01:13:36;;;;;;;;;2.67;2.67;;;;;14.66;100.00;100456.28;5031230;28;45173;-74
2022/10/01 01:16:18;;;;;;;;;3.00;3.00;;;;;14.43;100.00;100441.75;5035868;28;45425;-74
2022/10/01 01:19:06;;;;;;;;;6.67;4.67;;;;;14.47;100.00;100462.22;5030693;28;45404;-74
2022/10/01 01:21:36;;;;;;;;;3.00;2.33;;;;;14.37;100.00;100453.38;5029270;28;45510;-75
2022/10/01 01:24:04;;;;;;;;;4.33;2.00;;;;;14.47;100.00;100470.41;5043362;28;47110;-75
2022/10/01 01:26:38;;;;;;;;;3.33;2.00;;;;;14.46;100.00;100437.81;5042512;28;45386;-74
2022/10/01 01:29:22;;;;;;;;;1.00;1.00;;;;;14.54;100.00;100444.06;5024439;28;45330;-74
2022/10/01 01:31:48;;;;;;;;;3.33;3.33;;;;;14.56;100.00;100428.31;5031575;28;45516;-74
2022/10/01 01:34:22;;;;;;;;;3.33;3.33;;;;;14.47;100.00;100413.00;5037677;28;46371;-74
2022/10/01 01:36:58;;;;;;;;;2.67;2.67;;;;;14.54;100.00;100419.44;5037712;28;46146;-74
2022/10/01 01:39:28;;;;;;;;;3.00;3.00;;;;;14.65;100.00;100434.59;5041805;28;45349;-75
2022/10/01 01:42:00;;;;;;;;;2.00;2.00;;;;;14.69;100.00;100403.09;5029954;28;45974;-74
2022/10/01 01:44:32;;;;;;;;;2.00;2.00;;;;;14.84;100.00;100403.16;5038930;28;47621;-74
2022/10/01 01:47:00;;;;;;;;;1.67;1.67;;;;;14.75;100.00;100408.72;5032143;28;45311;-74
2022/10/01 01:49:26;;;;;;;;;2.67;2.00;;;;;14.84;100.00;100417.69;5027231;28;45401;-74
2022/10/01 01:52:04;;;;;;;;;3.67;2.67;;;;;14.75;100.00;100392.31;5034924;28;45439;-74
2022/10/01 01:54:33;;;;;;;;;1.33;1.33;;;;;14.85;100.00;100402.13;5028440;28;46758;-75
2022/10/01 01:56:59;;;;;;;;;1.67;1.00;;;;;14.89;100.00;100401.59;5037491;28;45524;-75
2022/10/01 01:59:26;;;;;;;;;2.00;1.00;;;;;14.92;100.00;100425.81;5028815;28;45490;-75
2022/10/01 02:01:51;;;;;;;;;1.00;0.00;;;;;14.86;100.00;100403.81;5031318;28;45561;-75
2022/10/01 02:04:30;;;;;;;;;1.00;1.00;;;;;15.00;100.00;100403.00;5026588;28;46561;-75
2022/10/01 02:06:55;;;;;;;;;2.00;1.00;;;;;15.06;100.00;100410.47;5039462;28;45390;-76
2022/10/01 02:09:50;;;;;;;;;1.00;1.00;;;;;14.97;100.00;100408.88;5040383;28;45437;-75
2022/10/01 02:13:00;;;;;;;;;2.00;2.00;;;;;15.12;100.00;100383.22;5030882;28;45502;-75
2022/10/01 02:15:40;;;;;;;;;1.00;1.00;;;;;15.01;100.00;100434.81;5027308;28;45383;-75
2022/10/01 02:18:26;;;;;;;;;0.00;0.00;;;;;15.05;100.00;100408.78;5049863;28;46248;-74
2022/10/01 02:21:01;;;;;;;;;0.67;0.67;;;;;15.19;100.00;100408.78;5041253;28;45305;-75
2022/10/01 02:23:36;;;;;;;;;1.00;1.00;;;;;15.26;100.00;100400.72;5038551;28;45516;-75
2022/10/01 02:26:10;;;;;;;;;1.00;1.00;;;;;15.23;100.00;100406.53;5042528;28;47001;-75
2022/10/01 02:28:38;;;;;;;;;0.00;0.00;;;;;15.24;100.00;100397.31;5046098;28;44821;-75
2022/10/01 02:31:03;;;;;;;;;1.00;1.00;;;;;15.28;100.00;100403.22;5041537;28;45482;-75
2022/10/01 02:33:32;;;;;;;;;1.00;1.00;;;;;15.29;100.00;100389.38;5033739;28;45366;-75
2022/10/01 02:36:00;;;;;;;;;1.00;1.00;;;;;15.30;100.00;100401.16;5036900;28;46270;-75
2022/10/01 02:38:28;;;;;;;;;0.00;0.00;;;;;15.38;100.00;100407.41;5033503;28;45389;-75
2022/10/01 02:40:59;;;;;;;;;0.33;0.33;;;;;15.44;100.00;100381.16;5040653;28;45355;-75
2022/10/01 02:43:32;;;;;;;;;0.00;0.00;;;;;15.42;100.00;100373.13;5050199;28;45554;-75
2022/10/01 02:46:13;;;;;;;;;1.00;1.00;;;;;15.45;100.00;100380.97;5043460;28;45357;-75
2022/10/01 02:48:39;;;;;;;;;0.00;0.00;;;;;15.44;100.00;100387.50;5044342;28;45386;-75
2022/10/01 02:51:40;;;;;;;;;0.33;0.33;;;;;15.46;100.00;100374.47;5032554;28;45414;-75
2022/10/01 02:54:16;;;;;;;;;0.67;0.33;;;;;15.58;100.00;100370.25;5037628;28;45418;-75
2022/10/01 02:59:26;;;;;;;;;0.00;0.00;;;;;15.40;100.00;100368.91;5042262;28;45377;-75
2022/10/01 03:01:51;;;;;;;;;0.00;0.00;;;;;15.52;100.00;100357.28;5043188;28;45482;-75
2022/10/01 03:04:18;;;;;;;;;0.00;0.00;;;;;15.62;100.00;100368.00;5031850;28;45252;-75
2022/10/01 03:06:43;;;;;;;;;1.00;1.00;;;;;15.60;100.00;100359.09;5038055;28;45541;-75
2022/10/01 03:09:09;;;;;;;;;0.00;0.00;;;;;15.60;100.00;100359.09;5036990;28;46309;-75
2022/10/01 03:11:34;;;;;;;;;0.00;0.00;;;;;15.70;100.00;100354.19;5038063;28;45435;-75
2022/10/01 03:14:00;;;;;;;;;0.00;0.00;;;;;15.68;100.00;100333.50;5040967;28;45211;-74
2022/10/01 03:16:25;;;;;;;;;0.00;0.00;;;;;15.72;100.00;100323.84;5043218;28;45716;-74
2022/10/01 03:18:51;;;;;;;;;1.00;1.00;;;;;15.71;100.00;100338.56;5042301;28;45483;-75
2022/10/01 03:21:16;;;;;;;;;0.00;0.00;;;;;15.69;100.00;100351.63;5044131;28;45311;-75
2022/10/01 03:23:41;;;;;;;;;0.00;0.00;;;;;15.69;100.00;100324.25;5036777;28;45448;-74
2022/10/01 03:26:07;;;;;;;;;0.00;0.00;;;;;15.64;100.00;100343.13;5033639;28;47725;-74
2022/10/01 03:28:32;;;;;;;;;0.00;0.00;;;;;15.79;100.00;100341.22;5034773;28;45435;-74
2022/10/01 03:31:08;;;;;;;;;0.00;0.00;;;;;15.75;100.00;100345.38;5037717;28;45514;-74
2022/10/01 03:33:34;;;;;;;;;0.00;0.00;;;;;15.80;100.00;100337.44;5034699;28;45524;-75
2022/10/01 03:35:59;;;;;;;;;0.00;0.00;;;;;15.79;100.00;100336.59;5033037;28;46432;-74
2022/10/01 03:38:25;;;;;;;;;0.00;0.00;;;;;15.82;100.00;100336.22;5031484;28;45510;-74
2022/10/01 03:40:50;;;;;;;;;0.67;0.00;;;;;15.90;100.00;100332.50;5037969;28;45381;-74
2022/10/01 03:43:15;;;;;;;;;0.00;0.00;;;;;15.90;100.00;100332.50;5039934;28;45389;-75
2022/10/01 03:45:40;;;;;;;;;0.00;0.00;;;;;15.81;100.00;100314.47;5035469;28;48049;-76
2022/10/01 03:48:06;;;;;;;;;0.00;0.00;;;;;15.74;100.00;100333.59;5050447;28;45366;-76
2022/10/01 03:50:31;;;;;;;;;0.00;0.00;;;;;15.78;100.00;100340.34;5033583;28;45645;-76
2022/10/01 03:52:56;;;;;;;;;0.00;0.00;;;;;15.74;100.00;100340.94;5039700;28;45506;-75
2022/10/01 03:55:24;;;;;;;;;0.00;0.00;;;;;15.82;100.00;100322.50;5042155;28;47071;-73
2022/10/01 03:57:49;;;;;;;;;0.00;0.00;;;;;15.91;100.00;100345.16;5035951;28;45819;-75
2022/10/01 04:00:17;;;;;;;;;0.00;0.00;;;;;15.87;100.00;100354.81;5033930;28;45212;-75
2022/10/01 04:02:42;;;;;;;;;0.00;0.00;;;;;15.90;100.00;100371.72;5039177;28;45439;-74
2022/10/01 04:05:08;;;;;;;;;0.00;0.00;;;;;15.96;100.00;100359.13;5028041;28;45564;-74
2022/10/01 04:07:33;;;;;;;;;0.00;0.00;;;;;16.00;100.00;100363.16;5041172;28;45498;-74
2022/10/01 04:09:58;;;;;;;;;1.00;0.00;;;;;16.05;100.00;100368.94;5030683;28;45516;-74
2022/10/01 04:12:24;;;;;;;;;0.00;0.00;;;;;16.00;100.00;100363.16;5039250;28;45650;-75
2022/10/01 04:14:50;;;;;;;;;0.00;0.00;;;;;16.03;100.00;100370.16;5034312;28;45329;-76
2022/10/01 04:17:15;;;;;;;;;0.00;0.00;;;;;16.06;100.00;100392.56;5036365;28;45436;-75
2022/10/01 04:19:40;;;;;;;;;0.00;0.00;;;;;16.12;100.00;100385.47;5038643;28;45473;-75
2022/10/01 04:22:06;;;;;;;;;0.00;0.00;;;;;16.11;100.00;100384.59;5037731;28;45502;-75
2022/10/01 04:24:31;;;;;;;;;0.00;0.00;;;;;16.11;100.00;100401.06;5030894;28;45397;-75
2022/10/01 04:26:56;;;;;;;;;1.00;0.00;;;;;16.05;100.00;100401.81;5038974;28;45193;-75
2022/10/01 04:29:22;;;;;;;;;0.00;0.00;;;;;16.09;100.00;100418.72;5043392;28;45430;-75
2022/10/01 04:31:47;;;;;;;;;0.00;0.00;;;;;16.13;100.00;100415.41;5038524;28;45584;-76
2022/10/01 04:34:12;;;;;;;;;0.00;0.00;;;;;16.11;100.00;100422.13;5036780;28;46613;-75
2022/10/01 04:36:38;;;;;;;;;0.00;0.00;;;;;16.11;100.00;100409.28;5041174;28;45269;-75
2022/10/01 04:39:03;;;;;;;;;0.00;0.00;;;;;16.23;100.00;100426.91;5036517;28;47416;-75
2022/10/01 04:41:30;;;;;;;;;0.00;0.00;;;;;16.25;100.00;100424.84;5041665;28;45390;-75
2022/10/01 04:43:58;;;;;;;;;0.00;0.00;;;;;16.27;100.00;100427.38;5038893;28;45355;-76
2022/10/01 04:46:23;;;;;;;;;1.00;0.00;;;;;16.32;100.00;100424.91;5041714;28;45359;-76
2022/10/01 04:48:49;;;;;;;;;0.00;0.00;;;;;16.33;100.00;100427.47;5038799;28;45513;-75
2022/10/01 04:51:14;;;;;;;;;0.00;0.00;;;;;16.47;100.00;100450.41;5035654;28;45346;-76
2022/10/01 04:53:40;;;;;;;;;0.00;0.00;;;;;16.51;100.00;100450.88;5034195;28;46446;-76
2022/10/01 04:56:06;;;;;;;;;0.67;0.67;;;;;16.53;100.00;100452.34;5031947;28;45328;-75
2022/10/01 04:58:31;;;;;;;;;2.67;0.00;;;;;16.59;100.00;100448.84;5047300;28;45196;-75
2022/10/01 05:00:57;;;;;;;;;1.00;1.00;;;;;16.57;100.00;100450.94;5036735;28;45279;-75
2022/10/01 05:03:22;;;;;;;;;2.33;0.00;;;;;16.62;100.00;100455.88;5024101;28;45368;-76
2022/10/01 05:05:47;;;;;;;;;0.00;0.00;;;;;16.65;100.00;100463.72;5033290;28;45292;-75
2022/10/01 05:08:13;;;;;;;;;0.00;0.00;;;;;16.66;100.00;100454.41;5032228;28;45216;-75
2022/10/01 05:10:38;;;;;;;;;0.00;0.00;;;;;16.76;100.00;100465.94;5036886;28;46370;-76
2022/10/01 05:13:04;;;;;;;;;0.00;0.00;;;;;16.83;100.00;100468.75;5039786;28;47387;-75
2022/10/01 05:15:29;;;;;;;;;0.00;0.00;;;;;16.83;100.00;100460.50;5038239;28;46035;-75
2022/10/01 05:17:55;;;;;;;;;0.00;0.00;;;;;16.84;100.00;100471.28;5040447;28;45388;-75
2022/10/01 05:20:27;;;;;;;;;0.00;0.00;;;;;16.90;100.00;100469.66;5036584;28;46341;-75
2022/10/01 05:22:53;;;;;;;;;0.00;0.00;;;;;16.86;100.00;100465.63;5037063;28;46319;-75
2022/10/01 05:25:19;;;;;;;;;0.00;0.00;;;;;16.89;100.00;100470.69;5028570;28;45183;-75
2022/10/01 05:27:45;;;;;;;;;0.67;0.00;;;;;16.90;100.00;100481.47;5047993;28;45312;-75
2022/10/01 05:30:13;;;;;;;;;0.00;0.00;;;;;16.89;100.00;100471.53;5039038;28;45326;-75
2022/10/01 05:32:39;;;;;;;;;0.00;0.00;;;;;16.89;100.00;100471.53;5032934;28;47514;-75
2022/10/01 05:35:06;;;;;;;;;0.00;0.00;;;;;16.89;100.00;100488.00;5039350;28;45655;-74
2022/10/01 05:37:31;;;;;;;;;0.00;0.00;;;;;16.82;100.00;100473.38;5033637;28;45560;-75
2022/10/01 05:39:57;;;;;;;;;0.00;0.00;;;;;16.95;100.00;100497.38;5025867;28;45584;-75
2022/10/01 05:42:22;;;;;;;;;0.00;0.00;;;;;16.91;100.00;100496.91;5034526;28;45486;-75
2022/10/01 05:44:48;;;;;;;;;0.00;0.00;;;;;16.93;100.00;100489.34;5036917;28;45315;-75
2022/10/01 05:47:15;;;;;;;;;0.00;0.00;;;;;16.87;100.00;100512.06;5038835;28;45541;-75
2022/10/01 05:49:42;;;;;;;;;0.00;0.00;;;;;16.90;100.00;100517.16;5035476;28;45414;-75
2022/10/01 05:52:12;;;;;;;;;0.00;0.00;;;;;16.83;100.00;100532.69;5037016;28;47640;-75
2022/10/01 05:54:37;;;;;;;;;0.00;0.00;;;;;16.93;100.00;100538.72;5034983;28;45177;-75
2022/10/01 05:57:04;;;;;;;;;0.00;0.00;;;;;16.92;100.00;100537.03;5039377;28;45252;-75
2022/10/01 05:59:29;;;;;;;;;0.00;0.00;;;;;16.95;100.00;100535.81;5029351;28;45291;-74
2022/10/01 06:01:55;;;;;;;;;0.00;0.00;;;;;16.83;100.00;100542.81;5044403;28;46709;-75
2022/10/01 06:04:20;;;;;;;;;0.00;0.00;;;;;16.83;100.00;100554.66;5030002;28;45377;-76
2022/10/01 06:06:45;;;;;;;;;0.00;0.00;;;;;16.88;100.00;100546.69;5043014;28;45889;-75
2022/10/01 06:09:11;;;;;;;;;2.00;0.00;;;;;16.91;100.00;100557.28;5040279;28;45590;-75
2022/10/01 06:11:37;;;;;;;;;0.00;0.00;;;;;16.89;100.00;100558.50;5040853;28;46952;-75
2022/10/01 06:14:03;;;;;;;;;0.00;0.00;;;;;16.89;100.00;100559.34;5040028;28;45486;-75
2022/10/01 06:16:28;;;;;;;;;0.00;0.00;;;;;16.90;100.00;100568.44;5040627;28;45521;-75
2022/10/01 06:18:56;;;;;;;;;1.00;0.00;;;;;16.93;100.00;100576.31;5042534;28;45255;-74
2022/10/01 06:21:23;;;;;;;;;0.00;0.00;;;;;16.91;100.00;100578.38;5043094;28;45766;-74
2022/10/01 06:23:49;;;;;;;;;2.67;0.00;;;;;16.94;100.00;100583.50;5038988;28;45354;-74
2022/10/01 06:26:15;;;;;;;;;0.00;0.00;;;;;16.99;100.00;100581.84;5038864;28;45652;-75
2022/10/01 06:28:41;;;;;;;;;1.00;1.00;;;;;16.98;100.00;100585.66;5029767;28;45564;-74
2022/10/01 06:31:06;;;;;;;;;0.00;0.00;;;;;17.03;100.00;100583.16;5033399;28;47123;-74
2022/10/01 06:33:32;;;;;;;;;1.00;1.00;;;;;17.01;100.00;100587.16;5036111;28;45385;-74
2022/10/01 06:35:57;;;;;;;;;0.00;0.00;;;;;17.04;100.00;100595.84;5042932;28;45512;-74
2022/10/01 06:38:24;;;;;;;;;1.67;0.67;;;;;17.01;100.00;100598.16;5038772;28;45348;-74
2022/10/01 06:41:00;;;;;;;;;0.00;0.00;;;;;16.96;100.00;100606.94;5030509;28;46174;-74
2022/10/01 06:43:27;;;;;;;;;0.67;0.67;;;;;16.99;100.00;100609.31;5032724;28;45299;-74
2022/10/01 06:45:53;;;;;;;;;1.00;0.00;;;;;16.99;100.00;100602.97;5039094;28;45618;-74
2022/10/01 06:48:19;;;;;;;;;2.00;1.00;;;;;17.06;100.00;100598.41;5029068;28;45335;-74
2022/10/01 06:50:46;;;;;;;;;1.00;1.00;;;;;17.12;100.00;100601.22;5047324;28;48017;-75
2022/10/01 06:53:13;;;;;;;;;0.00;0.00;;;;;17.06;100.00;100602.00;5031637;28;45418;-76
2022/10/01 06:55:39;;;;;;;;;1.00;1.00;;;;;16.97;100.00;100600.41;5035371;28;47554;-73
2022/10/01 06:58:13;;;;;;;;;1.33;0.00;;;;;16.99;100.00;100600.22;5032736;28;45381;-74
2022/10/01 07:00:39;;;;;;;;;2.00;1.00;;;;;17.11;100.00;100606.88;5038940;28;48045;-74
2022/10/01 07:03:09;;;;;;;;;1.00;0.00;;;;;17.07;100.00;100614.69;5041037;28;45409;-75
2022/10/01 07:05:36;;;;;;;;;2.00;0.00;;;;;17.07;100.00;100628.41;5039506;28;45233;-75
2022/10/01 07:08:02;;;;;;;;;1.00;0.00;;;;;17.12;100.00;100625.06;5039103;28;45388;-75
2022/10/01 07:10:27;;;;;;;;;4.00;2.00;;;;;17.20;100.00;100632.34;5039765;28;45714;-75
2022/10/01 07:12:52;;;;;;;;;2.33;1.00;;;;;17.28;100.00;100645.94;5041406;28;45330;-76
2022/10/01 07:15:24;;;;;;;;;2.00;2.00;;;;;17.09;100.00;100656.50;5030794;28;45426;-75
2022/10/01 07:17:51;;;;;;;;;1.33;1.33;;;;;17.17;100.00;100661.03;5041155;28;45390;-75
2022/10/01 07:20:18;;;;;;;;;2.00;2.00;;;;;17.27;100.00;100668.97;5030361;28;46609;-75
2022/10/01 07:22:45;;;;;;;;;0.00;0.00;;;;;17.19;100.00;100661.69;5042956;28;46090;-75
2022/10/01 07:25:11;;;;;;;;;3.67;2.00;;;;;17.21;100.00;100677.97;5056758;28;45420;-75
2022/10/01 07:27:37;;;;;;;;;1.00;1.00;;;;;17.31;100.00;100675.78;5049699;28;45528;-75
2022/10/01 07:30:04;;;;;;;;;4.00;3.00;;;;;17.23;100.00;100675.91;5031002;28;45622;-76
2022/10/01 07:32:30;;;;;;;;;3.00;1.00;;;;;17.26;100.00;100670.00;5036495;28;45748;-76
2022/10/01 07:34:56;;;;;;;;;9.00;6.00;;;;;17.24;100.00;100674.84;5028551;28;45244;-75
2022/10/01 07:37:22;;;;;;;;;2.00;2.00;;;;;17.29;100.00;100681.47;5033812;28;45508;-75
2022/10/01 07:39:47;;;;;;;;;0.67;0.67;;;;;17.39;100.00;100692.09;5040817;28;45310;-76
2022/10/01 07:42:13;;;;;;;;;3.00;1.67;;;;;17.55;100.00;100691.88;5036411;28;45435;-73
2022/10/01 07:44:38;;;;;;;;;1.00;1.00;;;;;17.53;100.00;100694.00;5028148;28;45343;-75
2022/10/01 07:47:03;;;;;;;;;4.67;1.00;;;;;17.56;100.00;100690.84;5036856;28;45373;-75
2022/10/01 07:49:29;;;;;;;;;1.00;1.00;;;;;17.67;100.00;100686.75;5044817;28;47081;-75
2022/10/01 07:51:54;;;;;;;;;2.00;2.00;;;;;17.68;100.00;100700.28;5037400;28;45603;-75
2022/10/01 07:54:23;;;;;;;;;2.33;1.00;;;;;17.57;100.00;100710.91;5040513;28;45548;-75
2022/10/01 07:56:51;;;;;;;;;2.00;1.00;;;;;17.61;100.00;100721.34;5040127;28;45918;-75
2022/10/01 07:59:17;;;;;;;;;4.00;1.00;;;;;17.78;100.00;100719.19;5044501;28;47247;-75
2022/10/01 08:01:42;;;;;;;;;3.33;1.00;;;;;17.85;100.00;100714.63;5036280;28;45475;-75
2022/10/01 08:06:52;;;;;;;;;6.33;3.33;;;;;17.97;100.00;100717.72;5040577;28;45460;-75
2022/10/01 08:09:18;;;;;;;;;2.33;1.00;;;;;18.13;100.00;100728.41;5057365;28;47081;-75
2022/10/01 08:11:44;;;;;;;;;1.00;1.00;;;;;18.12;100.00;100727.56;5040940;28;45440;-75
2022/10/01 08:14:10;;;;;;;;;4.00;1.00;;;;;18.06;100.00;100730.25;5038226;28;45436;-75
2022/10/01 08:16:38;;;;;;;;;5.00;3.00;;;;;18.05;100.00;100734.03;5034323;28;45445;-75
2022/10/01 08:19:03;;;;;;;;;5.33;2.00;;;;;17.98;100.00;100742.22;5035955;28;46850;-75
2022/10/01 08:21:28;;;;;;;;;1.33;1.00;;;;;17.99;100.00;100748.59;5031855;28;45209;-75
2022/10/01 08:23:54;;;;;;;;;8.67;5.00;;;;;18.10;100.00;100740.69;5035050;28;45444;-75
2022/10/01 08:26:19;;;;;;;;;2.00;2.00;;;;;18.11;100.00;100741.53;5037927;28;45362;-74
2022/10/01 08:28:44;;;;;;;;;4.00;0.00;;;;;18.16;100.00;100744.53;5028271;28;47040;-75
2022/10/01 08:31:10;;;;;;;;;3.00;2.00;;;;;18.02;100.00;100753.69;5035961;28;45472;-75
2022/10/01 08:33:37;;;;;;;;;5.33;5.00;;;;;18.12;100.00;100737.69;5032777;28;45319;-76
2022/10/01 08:36:03;;;;;;;;;5.00;2.67;;;;;18.20;100.00;100754.91;5039296;28;45581;-75
2022/10/01 08:38:29;;;;;;;;;6.00;2.33;;;;;18.31;100.00;100750.81;5040329;28;46126;-75
2022/10/01 08:40:55;;;;;;;;;3.33;2.00;;;;;18.29;100.00;100761.13;5034985;28;45524;-75
2022/10/01 08:43:28;;;;;;;;;10.67;10.33;;;;;18.52;100.00;100766.41;5037345;28;45436;-75
2022/10/01 08:45:57;;;;;;;;;5.00;3.00;;;;;18.54;100.00;100765.19;5028114;28;45680;-75
2022/10/01 08:48:34;;;;;;;;;4.00;2.00;;;;;18.63;100.00;100775.00;5040587;28;46176;-75
2022/10/01 08:51:06;;;;;;;;;3.00;1.00;;;;;18.75;100.00;100777.22;5034086;28;45259;-75
2022/10/01 08:53:41;;;;;;;;;2.00;2.00;;;;;18.77;100.00;100786.97;5032730;28;45288;-75
2022/10/01 08:56:20;;;;;;;;;7.67;6.00;;;;;18.69;100.00;100800.03;5026889;28;45432;-75
2022/10/01 08:58:55;;;;;;;;;7.33;3.67;;;;;18.59;100.00;100795.72;5028514;28;47202;-75
2022/10/01 09:01:21;;;;;;;;;4.00;3.00;;;;;18.55;100.00;100797.16;5031294;28;45444;-75
2022/10/01 09:03:47;;;;;;;;;4.00;2.67;;;;;18.54;100.00;100795.44;5029831;28;46482;-75
2022/10/01 09:06:19;;;;;;;;;3.00;2.00;;;;;18.58;100.00;100805.00;5037399;28;45511;-75
2022/10/01 09:08:51;;;;;;;;;2.00;2.00;;;;;18.74;100.00;100817.63;5033198;28;46795;-75
2022/10/01 09:11:23;;;;;;;;;4.67;2.67;;;;;18.77;100.00;100808.13;5040938;28;45401;-75
2022/10/01 09:14:05;;;;;;;;;3.33;2.67;;;;;18.82;100.00;100813.88;5049515;28;45314;-75
2022/10/01 09:17:00;;;;;;;;;2.67;1.33;;;;;18.85;100.00;100811.56;5034022;28;45243;-75
2022/10/01 09:19:42;;;;;;;;;8.33;6.00;;;;;18.80;100.00;100827.00;5021432;28;47580;-75
2022/10/01 09:22:24;;;;;;;;;4.00;2.00;;;;;18.95;100.00;100825.84;5037766;28;45452;-75
2022/10/01 09:25:02;;;;;;;;;3.33;2.00;;;;;18.83;100.00;100824.72;5023074;28;45359;-75
2022/10/01 09:27:27;;;;;;;;;7.00;2.00;;;;;18.86;100.00;100834.44;5035122;28;45251;-75
2022/10/01 09:29:59;;;;;;;;;5.33;4.00;;;;;18.91;100.00;100838.31;5027728;28;46464;-75
2022/10/01 09:32:45;;;;;;;;;5.00;3.33;;;;;18.94;100.00;100839.81;5033086;28;45492;-75
2022/10/01 09:35:24;;;;;;;;;4.00;3.33;;;;;19.03;100.00;100847.72;5026321;28;45417;-76
2022/10/01 09:38:14;;;;;;;;;3.00;2.67;;;;;18.97;100.00;100843.03;5037072;28;45504;-75
2022/10/01 09:40:45;;;;;;;;;3.67;2.00;;;;;18.83;100.00;100848.63;5039977;28;45412;-75
2022/10/01 09:43:11;;;;;;;;;6.33;4.00;;;;;18.60;100.00;100849.72;5032482;28;45321;-74
2022/10/01 09:45:37;;;;;;;;;6.67;3.67;;;;;18.84;100.00;100853.94;5034644;28;45516;-74
2022/10/01 09:48:16;;;;;;;;;6.67;3.67;;;;;18.74;100.00;100853.41;5039227;28;45801;-76
2022/10/01 09:50:53;;;;;;;;;3.00;3.00;;;;;18.98;100.00;100866.75;5039090;28;48152;-75
2022/10/01 09:53:24;;;;;;;;;5.00;3.00;;;;;19.02;100.00;100857.03;5051519;27;45304;-75
2022/10/01 09:55:55;;;;;;;;;5.00;3.00;;;;;19.13;100.00;100874.91;5052400;28;44801;-74
2022/10/01 09:58:23;;;;;;;;;4.00;4.00;;;;;19.26;100.00;100865.88;5050050;28;44909;-76
2022/10/01 10:00:50;;;;;;;;;8.67;5.00;;;;;19.05;100.00;100869.56;5026259;28;45447;-76
2022/10/01 10:03:29;;;;;;;;;6.00;5.33;;;;;19.22;100.00;100875.59;5037056;28;45500;-76
2022/10/01 10:05:58;;;;;;;;;1.67;1.67;;;;;19.25;100.00;100870.53;5028193;28;45252;-76
2022/10/01 10:08:32;;;;;;;;;7.00;4.00;;;;;19.28;100.00;100870.16;5030721;28;45375;-75
2022/10/01 10:11:01;;;;;;;;;2.67;2.67;;;;;19.45;100.00;100873.41;5038834;28;46546;-75
2022/10/01 10:13:38;;;;;;;;;9.33;7.33;;;;;19.57;100.00;100877.34;5031827;28;45333;-75
2022/10/01 10:16:35;;;;;;;;;3.67;3.00;;;;;19.84;100.00;100881.06;5035253;28;45319;-76
2022/10/01 10:19:09;;;;;;;;;3.00;3.00;;;;;19.93;100.00;100882.59;5052577;28;45247;-75
2022/10/01 10:21:34;;;;;;;;;4.00;3.33;;;;;19.60;100.00;100881.56;5037964;28;46393;-75
2022/10/01 10:24:03;;;;;;;;;2.33;2.33;;;;;19.53;100.00;100892.56;5031520;28;45727;-75
2022/10/01 10:26:33;;;;;;;;;5.33;3.00;;;;;19.86;100.00;100883.63;5027859;28;45450;-75
2022/10/01 10:29:02;;;;;;;;;6.00;3.00;;;;;19.71;100.00;100894.78;5030259;28;45173;-75
2022/10/01 10:31:34;;;;;;;;;7.33;3.33;;;;;19.97;100.00;100894.91;5035893;28;47223;-75
2022/10/01 10:34:14;;;;;;;;;7.00;2.00;;;;;20.21;100.00;100899.03;5031944;28;45434;-75
2022/10/01 10:36:41;;;;;;;;;7.33;4.67;;;;;20.15;99.87;100897.97;5030360;28;45360;-75
2022/10/01 10:39:17;;;;;;;;;3.00;3.00;;;;;20.26;99.26;100901.16;5022935;28;45522;-75
2022/10/01 10:41:47;;;;;;;;;4.00;2.33;;;;;20.17;98.66;100900.47;5034898;28;48443;-75
2022/10/01 10:44:18;;;;;;;;;5.00;1.00;;;;;20.17;98.47;100906.84;5040276;28;45727;-74
2022/10/01 10:46:44;;;;;;;;;4.00;4.00;;;;;20.44;97.47;100912.50;5035564;28;45610;-76
2022/10/01 10:49:20;;;;;;;;;4.33;3.00;;;;;20.36;97.77;100915.44;5043686;28;45189;-76
2022/10/01 10:51:54;;;;;;;;;6.33;4.00;;;;;20.38;96.25;100918.84;5038844;28;46065;-76
2022/10/01 10:54:28;;;;;;;;;7.00;1.67;;;;;20.69;96.83;100910.81;5026937;28;45510;-75
2022/10/01 10:57:01;;;;;;;;;5.00;2.00;;;;;20.77;92.34;100907.00;5041874;28;45428;-75
2022/10/01 10:59:31;;;;;;;;;3.67;3.67;;;;;20.72;88.86;100921.47;5030775;28;45462;-75
2022/10/01 11:01:59;;;;;;;;;5.33;4.00;;;;;20.60;85.44;100903.84;5046939;28;45430;-75
2022/10/01 11:04:37;;;;;;;;;4.33;4.33;;;;;20.46;87.81;100926.91;5041070;28;45323;-75
2022/10/01 11:07:04;;;;;;;;;5.33;4.00;;;;;20.48;87.77;100936.69;5033939;28;45485;-75
2022/10/01 11:09:42;;;;;;;;;4.00;3.67;;;;;20.55;86.88;100936.72;5036764;28;45324;-75
2022/10/01 11:12:29;;;;;;;;;12.33;5.00;;;;;20.58;86.70;100930.78;5037528;28;46481;-75
2022/10/01 11:15:25;;;;;;;;;6.00;4.00;;;;;20.76;84.56;100936.53;5032774;28;45351;-75
2022/10/01 11:18:15;;;;;;;;;4.67;2.00;;;;;20.91;86.28;100934.44;5052944;28;45326;-75
2022/10/01 11:21:04;;;;;;;;;2.33;2.33;;;;;20.83;83.56;100937.41;5041095;28;45506;-75
2022/10/01 11:23:29;;;;;;;;;5.67;3.67;;;;;20.88;82.41;100945.91;5038627;28;45403;-75
2022/10/01 11:26:13;;;;;;;;;4.00;3.33;;;;;20.82;83.17;100937.63;5037476;28;45449;-75
2022/10/01 11:28:54;;;;;;;;;5.67;2.33;;;;;21.04;84.08;100935.53;5039035;28;45401;-76
2022/10/01 11:31:38;;;;;;;;;5.00;4.00;;;;;21.33;81.06;100927.66;5037063;28;45464;-75
2022/10/01 11:34:24;;;;;;;;;5.67;3.00;;;;;21.40;78.86;100946.16;5038816;28;45344;-75